sensor_id;sensor_type;location;lat;lon;timestamp;pressure;altitude;pressure_sealevel;temperature;humidity
47082;BME280;33066;49.296;14.470;2023-04-15T00:00:38;95418.07;;;11.10;44.07
47082;BME280;33066;49.296;14.470;2023-04-15T00:03:04;95416.47;;;11.09;44.09
47082;BME280;33066;49.296;14.470;2023-04-15T00:05:29;95420.25;;;11.12;43.86
47082;BME280;33066;49.296;14.470;2023-04-15T00:07:54;95424.24;;;11.25;44.26
47082;BME280;33066;49.296;14.470;2023-04-15T00:10:20;95421.49;;;11.27;44.12
47082;BME280;33066;49.296;14.470;2023-04-15T00:12:45;95425.18;;;11.31;43.99
47082;BME280;33066;49.296;14.470;2023-04-15T00:15:11;95422.46;;;11.15;44.06
47082;BME280;33066;49.296;14.470;2023-04-15T00:17:36;95425.92;;;11.27;44.48
47082;BME280;33066;49.296;14.470;2023-04-15T00:20:01;95431.03;;;11.47;44.28
47082;BME280;33066;49.296;14.470;2023-04-15T00:22:27;95438.36;;;11.62;43.97
47082;BME280;33066;49.296;14.470;2023-04-15T00:24:52;95436.63;;;11.29;43.77
47082;BME280;33066;49.296;14.470;2023-04-15T00:27:18;95434.03;;;11.40;44.05
47082;BME280;33066;49.296;14.470;2023-04-15T00:29:43;95440.39;;;11.49;43.73
47082;BME280;33066;49.296;14.470;2023-04-15T00:32:08;95447.04;;;11.51;44.09
47082;BME280;33066;49.296;14.470;2023-04-15T00:34:34;95444.70;;;11.80;44.06
47082;BME280;33066;49.296;14.470;2023-04-15T00:36:59;95444.93;;;11.77;43.85
47082;BME280;33066;49.296;14.470;2023-04-15T00:39:24;95449.86;;;11.94;43.56
47082;BME280;33066;49.296;14.470;2023-04-15T00:41:50;95455.97;;;11.78;43.54
47082;BME280;33066;49.296;14.470;2023-04-15T00:44:15;95452.36;;;11.67;43.37
47082;BME280;33066;49.296;14.470;2023-04-15T00:46:40;95453.44;;;11.78;43.17
47082;BME280;33066;49.296;14.470;2023-04-15T00:49:06;95453.50;;;11.78;43.48
47082;BME280;33066;49.296;14.470;2023-04-15T00:51:31;95450.65;;;11.76;43.58
47082;BME280;33066;49.296;14.470;2023-04-15T00:53:56;95452.51;;;11.76;43.64
47082;BME280;33066;49.296;14.470;2023-04-15T00:56:22;95448.69;;;11.66;43.22
47082;BME280;33066;49.296;14.470;2023-04-15T00:58:47;95447.95;;;11.90;43.31
47082;BME280;33066;49.296;14.470;2023-04-15T01:01:12;95447.37;;;11.55;43.44
47082;BME280;33066;49.296;14.470;2023-04-15T01:03:38;95444.09;;;11.84;43.40
47082;BME280;33066;49.296;14.470;2023-04-15T01:06:03;95443.99;;;11.82;43.48
47082;BME280;33066;49.296;14.470;2023-04-15T01:08:29;95443.47;;;11.57;43.51
47082;BME280;33066;49.296;14.470;2023-04-15T01:10:55;95450.40;;;11.49;43.54
47082;BME280;33066;49.296;14.470;2023-04-15T01:13:19;95447.73;;;11.85;43.65
47082;BME280;33066;49.296;14.470;2023-04-15T01:15:44;95448.85;;;11.71;43.69
47082;BME280;33066;49.296;14.470;2023-04-15T01:18:10;95449.00;;;11.73;43.89
47082;BME280;33066;49.296;14.470;2023-04-15T01:20:35;95448.81;;;11.50;43.79
47082;BME280;33066;49.296;14.470;2023-04-15T01:23:01;95446.88;;;11.44;43.82
47082;BME280;33066;49.296;14.470;2023-04-15T01:25:30;95444.57;;;11.28;43.84
47082;BME280;33066;49.296;14.470;2023-04-15T01:27:51;95444.62;;;11.75;43.95
47082;BME280;33066;49.296;14.470;2023-04-15T01:30:17;95441.92;;;11.56;44.04
47082;BME280;33066;49.296;14.470;2023-04-15T01:32:42;95437.92;;;11.84;44.08
47082;BME280;33066;49.296;14.470;2023-04-15T01:35:08;95437.33;;;11.58;44.12
47082;BME280;33066;49.296;14.470;2023-04-15T01:37:33;95438.73;;;11.54;43.91
47082;BME280;33066;49.296;14.470;2023-04-15T01:39:58;95435.56;;;11.54;44.11
47082;BME280;33066;49.296;14.470;2023-04-15T01:42:24;95433.97;;;11.94;44.03
47082;BME280;33066;49.296;14.470;2023-04-15T01:44:49;95437.35;;;11.51;44.19
47082;BME280;33066;49.296;14.470;2023-04-15T01:47:14;95441.63;;;11.70;44.34
47082;BME280;33066;49.296;14.470;2023-04-15T01:49:40;95443.71;;;11.71;44.22
47082;BME280;33066;49.296;14.470;2023-04-15T01:52:05;95443.40;;;11.78;43.87
47082;BME280;33066;49.296;14.470;2023-04-15T01:54:30;95446.26;;;11.75;43.91
47082;BME280;33066;49.296;14.470;2023-04-15T01:56:56;95447.91;;;11.90;43.74
47082;BME280;33066;49.296;14.470;2023-04-15T01:59:21;95444.91;;;11.97;43.62
47082;BME280;33066;49.296;14.470;2023-04-15T02:01:46;95440.62;;;11.80;43.60
47082;BME280;33066;49.296;14.470;2023-04-15T02:04:12;95438.41;;;12.16;43.73
47082;BME280;33066;49.296;14.470;2023-04-15T02:06:37;95436.90;;;12.26;43.66
47082;BME280;33066;49.296;14.470;2023-04-15T02:09:02;95446.19;;;12.11;43.48
47082;BME280;33066;49.296;14.470;2023-04-15T02:11:28;95451.37;;;12.12;43.34
47082;BME280;33066;49.296;14.470;2023-04-15T02:13:53;95455.65;;;12.17;43.40
47082;BME280;33066;49.296;14.470;2023-04-15T02:16:19;95454.66;;;12.25;43.31
47082;BME280;33066;49.296;14.470;2023-04-15T02:18:44;95453.01;;;12.51;43.33
47082;BME280;33066;49.296;14.470;2023-04-15T02:21:09;95452.28;;;12.23;43.45
47082;BME280;33066;49.296;14.470;2023-04-15T02:23:34;95450.63;;;12.50;43.51
47082;BME280;33066;49.296;14.470;2023-04-15T02:26:00;95450.66;;;12.31;43.37
47082;BME280;33066;49.296;14.470;2023-04-15T02:28:25;95451.53;;;12.34;43.21
47082;BME280;33066;49.296;14.470;2023-04-15T02:30:50;95451.39;;;12.22;43.22
47082;BME280;33066;49.296;14.470;2023-04-15T02:33:16;95452.06;;;12.09;43.43
47082;BME280;33066;49.296;14.470;2023-04-15T02:35:41;95456.56;;;11.99;43.53
47082;BME280;33066;49.296;14.470;2023-04-15T02:38:07;95456.16;;;12.11;43.56
47082;BME280;33066;49.296;14.470;2023-04-15T02:40:32;95456.28;;;12.22;43.41
47082;BME280;33066;49.296;14.470;2023-04-15T02:42:57;95458.39;;;12.27;43.30
47082;BME280;33066;49.296;14.470;2023-04-15T02:45:22;95466.46;;;12.30;43.49
47082;BME280;33066;49.296;14.470;2023-04-15T02:47:48;95468.98;;;12.17;42.57
47082;BME280;33066;49.296;14.470;2023-04-15T02:50:13;95477.89;;;11.68;42.30
47082;BME280;33066;49.296;14.470;2023-04-15T02:52:39;95485.23;;;11.63;42.57
47082;BME280;33066;49.296;14.470;2023-04-15T02:55:05;95486.75;;;11.57;42.41
47082;BME280;33066;49.296;14.470;2023-04-15T02:57:29;95487.28;;;11.31;42.31
47082;BME280;33066;49.296;14.470;2023-04-15T02:59:54;95492.55;;;11.27;42.52
47082;BME280;33066;49.296;14.470;2023-04-15T03:02:20;95493.73;;;11.21;43.27
47082;BME280;33066;49.296;14.470;2023-04-15T03:04:45;95494.11;;;11.15;43.52
47082;BME280;33066;49.296;14.470;2023-04-15T03:07:10;95495.43;;;11.29;43.23
47082;BME280;33066;49.296;14.470;2023-04-15T03:09:36;95496.19;;;11.11;43.21
47082;BME280;33066;49.296;14.470;2023-04-15T03:12:59;95492.75;;;11.48;42.45
47082;BME280;33066;49.296;14.470;2023-04-15T03:15:25;95497.15;;;11.39;42.56
47082;BME280;33066;49.296;14.470;2023-04-15T03:17:50;95501.38;;;11.44;42.89
47082;BME280;33066;49.296;14.470;2023-04-15T03:20:16;95500.58;;;11.57;42.93
47082;BME280;33066;49.296;14.470;2023-04-15T03:22:41;95503.88;;;11.62;42.38
47082;BME280;33066;49.296;14.470;2023-04-15T03:25:07;95507.36;;;11.38;42.31
47082;BME280;33066;49.296;14.470;2023-04-15T03:27:31;95509.44;;;11.57;42.29
47082;BME280;33066;49.296;14.470;2023-04-15T03:29:57;95511.08;;;11.57;42.51
47082;BME280;33066;49.296;14.470;2023-04-15T03:32:22;95511.67;;;11.78;42.24
47082;BME280;33066;49.296;14.470;2023-04-15T03:34:47;95519.04;;;11.45;42.14
47082;BME280;33066;49.296;14.470;2023-04-15T03:37:13;95519.41;;;11.35;42.63
47082;BME280;33066;49.296;14.470;2023-04-15T03:39:38;95522.15;;;11.32;42.65
47082;BME280;33066;49.296;14.470;2023-04-15T03:42:03;95524.99;;;11.32;42.64
47082;BME280;33066;49.296;14.470;2023-04-15T03:44:29;95525.32;;;11.11;42.61
47082;BME280;33066;49.296;14.470;2023-04-15T03:46:54;95523.99;;;11.14;42.74
47082;BME280;33066;49.296;14.470;2023-04-15T03:49:20;95526.93;;;11.37;42.57
47082;BME280;33066;49.296;14.470;2023-04-15T03:51:45;95525.51;;;11.11;42.40
47082;BME280;33066;49.296;14.470;2023-04-15T03:54:11;95526.43;;;11.39;42.47
47082;BME280;33066;49.296;14.470;2023-04-15T03:56:36;95525.19;;;11.39;42.67
47082;BME280;33066;49.296;14.470;2023-04-15T03:59:01;95525.38;;;11.57;42.58
47082;BME280;33066;49.296;14.470;2023-04-15T04:01:27;95524.90;;;11.65;41.97
47082;BME280;33066;49.296;14.470;2023-04-15T04:03:52;95528.06;;;11.65;41.88
47082;BME280;33066;49.296;14.470;2023-04-15T04:06:17;95530.85;;;11.47;41.95
47082;BME280;33066;49.296;14.470;2023-04-15T04:08:42;95532.14;;;11.49;42.08
47082;BME280;33066;49.296;14.470;2023-04-15T04:11:08;95532.59;;;11.72;42.03
47082;BME280;33066;49.296;14.470;2023-04-15T04:13:33;95539.11;;;11.43;41.64
47082;BME280;33066;49.296;14.470;2023-04-15T04:15:58;95545.09;;;11.14;41.74
47082;BME280;33066;49.296;14.470;2023-04-15T04:18:24;95546.54;;;11.38;41.54
47082;BME280;33066;49.296;14.470;2023-04-15T04:20:49;95550.27;;;11.38;41.49
47082;BME280;33066;49.296;14.470;2023-04-15T04:23:15;95553.39;;;11.57;41.41
47082;BME280;33066;49.296;14.470;2023-04-15T04:25:40;95555.35;;;11.55;41.48
47082;BME280;33066;49.296;14.470;2023-04-15T04:28:05;95555.98;;;11.12;41.82
47082;BME280;33066;49.296;14.470;2023-04-15T04:30:31;95563.78;;;11.08;41.50
47082;BME280;33066;49.296;14.470;2023-04-15T04:32:56;95564.99;;;10.87;41.69
47082;BME280;33066;49.296;14.470;2023-04-15T04:35:22;95571.28;;;10.72;41.79
47082;BME280;33066;49.296;14.470;2023-04-15T04:37:47;95574.62;;;10.73;42.03
47082;BME280;33066;49.296;14.470;2023-04-15T04:40:13;95582.71;;;10.70;42.03
47082;BME280;33066;49.296;14.470;2023-04-15T04:42:38;95587.72;;;10.76;42.10
47082;BME280;33066;49.296;14.470;2023-04-15T04:45:04;95593.16;;;10.72;42.15
47082;BME280;33066;49.296;14.470;2023-04-15T04:47:29;95597.05;;;11.03;41.75
47082;BME280;33066;49.296;14.470;2023-04-15T04:49:54;95600.21;;;10.73;42.05
47082;BME280;33066;49.296;14.470;2023-04-15T04:52:20;95601.74;;;10.94;41.98
47082;BME280;33066;49.296;14.470;2023-04-15T04:54:45;95604.35;;;10.79;41.98
47082;BME280;33066;49.296;14.470;2023-04-15T04:57:10;95605.36;;;10.68;41.89
47082;BME280;33066;49.296;14.470;2023-04-15T04:59:36;95607.23;;;10.66;42.02
47082;BME280;33066;49.296;14.470;2023-04-15T05:02:01;95606.58;;;10.70;41.80
47082;BME280;33066;49.296;14.470;2023-04-15T05:04:27;95608.70;;;10.74;41.87
47082;BME280;33066;49.296;14.470;2023-04-15T05:06:52;95607.32;;;10.89;41.69
47082;BME280;33066;49.296;14.470;2023-04-15T05:09:17;95607.81;;;10.78;41.62
47082;BME280;33066;49.296;14.470;2023-04-15T05:11:43;95610.00;;;10.99;41.61
47082;BME280;33066;49.296;14.470;2023-04-15T05:14:08;95607.97;;;10.69;41.89
47082;BME280;33066;49.296;14.470;2023-04-15T05:16:34;95611.54;;;10.91;41.76
47082;BME280;33066;49.296;14.470;2023-04-15T05:18:59;95612.29;;;10.83;41.94
47082;BME280;33066;49.296;14.470;2023-04-15T05:21:24;95613.09;;;10.98;41.73
47082;BME280;33066;49.296;14.470;2023-04-15T05:23:50;95610.93;;;11.18;41.22
47082;BME280;33066;49.296;14.470;2023-04-15T05:26:15;95611.62;;;11.26;41.29
47082;BME280;33066;49.296;14.470;2023-04-15T05:28:41;95611.15;;;11.20;41.25
47082;BME280;33066;49.296;14.470;2023-04-15T05:31:07;95613.73;;;11.01;41.21
47082;BME280;33066;49.296;14.470;2023-04-15T05:33:32;95608.69;;;10.99;41.00
47082;BME280;33066;49.296;14.470;2023-04-15T05:35:57;95610.39;;;11.26;41.02
47082;BME280;33066;49.296;14.470;2023-04-15T05:38:22;95614.72;;;11.07;40.86
47082;BME280;33066;49.296;14.470;2023-04-15T05:40:48;95612.48;;;10.19;40.79
47082;BME280;33066;49.296;14.470;2023-04-15T05:43:13;95616.38;;;11.53;40.27
47082;BME280;33066;49.296;14.470;2023-04-15T05:45:39;95617.28;;;11.49;40.50
47082;BME280;33066;49.296;14.470;2023-04-15T05:48:04;95615.48;;;11.03;40.26
47082;BME280;33066;49.296;14.470;2023-04-15T05:50:29;95618.84;;;11.38;40.61
47082;BME280;33066;49.296;14.470;2023-04-15T05:52:55;95620.36;;;11.41;40.15
47082;BME280;33066;49.296;14.470;2023-04-15T05:55:20;95617.18;;;11.40;40.10
47082;BME280;33066;49.296;14.470;2023-04-15T05:57:46;95622.62;;;11.54;40.38
47082;BME280;33066;49.296;14.470;2023-04-15T06:00:12;95624.11;;;11.43;40.44
47082;BME280;33066;49.296;14.470;2023-04-15T06:02:36;95626.45;;;11.35;39.51
47082;BME280;33066;49.296;14.470;2023-04-15T06:05:02;95630.92;;;11.53;39.88
47082;BME280;33066;49.296;14.470;2023-04-15T06:07:27;95634.76;;;11.27;39.86
47082;BME280;33066;49.296;14.470;2023-04-15T06:09:52;95637.93;;;11.46;40.03
47082;BME280;33066;49.296;14.470;2023-04-15T06:12:18;95633.49;;;11.29;39.61
47082;BME280;33066;49.296;14.470;2023-04-15T06:14:43;95635.05;;;11.56;39.95
47082;BME280;33066;49.296;14.470;2023-04-15T06:17:09;95642.21;;;11.53;40.23
47082;BME280;33066;49.296;14.470;2023-04-15T06:19:34;95645.76;;;11.51;40.63
47082;BME280;33066;49.296;14.470;2023-04-15T06:22:00;95649.76;;;11.71;40.67
47082;BME280;33066;49.296;14.470;2023-04-15T06:24:25;95654.30;;;11.75;40.50
47082;BME280;33066;49.296;14.470;2023-04-15T06:26:50;95657.14;;;11.83;40.05
47082;BME280;33066;49.296;14.470;2023-04-15T06:29:16;95658.31;;;11.66;40.12
47082;BME280;33066;49.296;14.470;2023-04-15T06:31:41;95662.02;;;12.00;39.90
47082;BME280;33066;49.296;14.470;2023-04-15T06:34:06;95661.54;;;11.83;40.50
47082;BME280;33066;49.296;14.470;2023-04-15T06:36:32;95661.75;;;11.85;40.15
47082;BME280;33066;49.296;14.470;2023-04-15T06:38:57;95661.14;;;11.90;39.87
47082;BME280;33066;49.296;14.470;2023-04-15T06:41:22;95664.84;;;11.97;39.63
47082;BME280;33066;49.296;14.470;2023-04-15T06:43:48;95668.16;;;12.26;40.07
47082;BME280;33066;49.296;14.470;2023-04-15T06:46:13;95675.26;;;12.10;40.08
47082;BME280;33066;49.296;14.470;2023-04-15T06:48:38;95676.92;;;12.11;39.55
47082;BME280;33066;49.296;14.470;2023-04-15T06:51:04;95676.75;;;12.11;39.58
47082;BME280;33066;49.296;14.470;2023-04-15T06:53:29;95681.50;;;12.18;39.58
47082;BME280;33066;49.296;14.470;2023-04-15T06:55:55;95683.65;;;12.20;39.46
47082;BME280;33066;49.296;14.470;2023-04-15T06:58:20;95685.80;;;11.94;39.49
47082;BME280;33066;49.296;14.470;2023-04-15T07:00:45;95684.82;;;12.14;38.96
47082;BME280;33066;49.296;14.470;2023-04-15T07:03:11;95687.80;;;12.14;39.16
47082;BME280;33066;49.296;14.470;2023-04-15T07:05:36;95685.96;;;12.06;38.98
47082;BME280;33066;49.296;14.470;2023-04-15T07:08:01;95687.85;;;12.03;39.18
47082;BME280;33066;49.296;14.470;2023-04-15T07:10:27;95690.04;;;12.03;38.90
47082;BME280;33066;49.296;14.470;2023-04-15T07:12:52;95690.80;;;12.08;39.16
47082;BME280;33066;49.296;14.470;2023-04-15T07:15:17;95692.04;;;12.28;39.06
47082;BME280;33066;49.296;14.470;2023-04-15T07:17:43;95692.03;;;12.46;39.23
47082;BME280;33066;49.296;14.470;2023-04-15T07:20:09;95694.69;;;12.48;38.35
47082;BME280;33066;49.296;14.470;2023-04-15T07:22:34;95697.11;;;12.23;38.44
47082;BME280;33066;49.296;14.470;2023-04-15T07:24:59;95699.53;;;12.57;38.68
47082;BME280;33066;49.296;14.470;2023-04-15T07:27:24;95697.59;;;12.69;38.52
47082;BME280;33066;49.296;14.470;2023-04-15T07:29:50;95699.38;;;12.48;38.51
47082;BME280;33066;49.296;14.470;2023-04-15T07:32:15;95703.45;;;12.66;38.58
47082;BME280;33066;49.296;14.470;2023-04-15T07:34:40;95700.87;;;12.76;38.04
47082;BME280;33066;49.296;14.470;2023-04-15T07:37:05;95700.56;;;12.42;37.84
47082;BME280;33066;49.296;14.470;2023-04-15T07:39:31;95704.51;;;12.71;38.25
47082;BME280;33066;49.296;14.470;2023-04-15T07:41:57;95707.20;;;12.60;37.61
47082;BME280;33066;49.296;14.470;2023-04-15T07:44:22;95708.98;;;12.58;38.17
47082;BME280;33066;49.296;14.470;2023-04-15T07:46:47;95709.48;;;12.42;38.13
47082;BME280;33066;49.296;14.470;2023-04-15T07:49:12;95706.02;;;12.97;37.72
47082;BME280;33066;49.296;14.470;2023-04-15T07:51:38;95713.01;;;12.61;37.37
47082;BME280;33066;49.296;14.470;2023-04-15T07:54:03;95714.54;;;12.77;37.80
47082;BME280;33066;49.296;14.470;2023-04-15T07:56:28;95715.97;;;12.93;37.33
47082;BME280;33066;49.296;14.470;2023-04-15T07:58:54;95717.18;;;12.42;37.55
47082;BME280;33066;49.296;14.470;2023-04-15T08:01:19;95712.78;;;12.96;37.48
47082;BME280;33066;49.296;14.470;2023-04-15T08:03:44;95716.55;;;12.83;38.01
47082;BME280;33066;49.296;14.470;2023-04-15T08:06:10;95719.06;;;13.01;38.36
47082;BME280;33066;49.296;14.470;2023-04-15T08:08:35;95720.64;;;13.39;37.84
47082;BME280;33066;49.296;14.470;2023-04-15T08:11:00;95722.18;;;13.06;37.37
47082;BME280;33066;49.296;14.470;2023-04-15T08:13:26;95726.43;;;13.25;37.23
47082;BME280;33066;49.296;14.470;2023-04-15T08:16:12;95726.26;;;13.19;36.92
47082;BME280;33066;49.296;14.470;2023-04-15T08:18:16;95725.69;;;13.29;36.35
47082;BME280;33066;49.296;14.470;2023-04-15T08:20:42;95726.15;;;13.16;36.44
47082;BME280;33066;49.296;14.470;2023-04-15T08:23:08;95727.54;;;12.98;36.63
47082;BME280;33066;49.296;14.470;2023-04-15T08:25:32;95730.45;;;13.16;37.62
47082;BME280;33066;49.296;14.470;2023-04-15T08:28:03;95733.91;;;13.28;37.75
47082;BME280;33066;49.296;14.470;2023-04-15T08:30:23;95735.60;;;13.45;36.65
47082;BME280;33066;49.296;14.470;2023-04-15T08:32:49;95737.27;;;13.40;36.69
47082;BME280;33066;49.296;14.470;2023-04-15T08:35:14;95731.86;;;13.54;36.22
47082;BME280;33066;49.296;14.470;2023-04-15T08:37:39;95734.69;;;13.70;36.18
47082;BME280;33066;49.296;14.470;2023-04-15T08:40:06;95736.21;;;13.94;36.36
47082;BME280;33066;49.296;14.470;2023-04-15T08:42:31;95739.12;;;13.80;36.50
47082;BME280;33066;49.296;14.470;2023-04-15T08:44:56;95742.85;;;13.91;36.30
47082;BME280;33066;49.296;14.470;2023-04-15T08:47:22;95743.22;;;13.62;35.96
47082;BME280;33066;49.296;14.470;2023-04-15T08:49:46;95742.99;;;13.97;35.84
47082;BME280;33066;49.296;14.470;2023-04-15T08:52:11;95746.85;;;14.11;36.17
47082;BME280;33066;49.296;14.470;2023-04-15T08:54:37;95748.95;;;14.57;35.96
47082;BME280;33066;49.296;14.470;2023-04-15T08:57:03;95745.40;;;14.51;35.58
47082;BME280;33066;49.296;14.470;2023-04-15T08:59:29;95745.59;;;14.49;35.51
47082;BME280;33066;49.296;14.470;2023-04-15T09:01:53;95746.73;;;14.53;35.16
47082;BME280;33066;49.296;14.470;2023-04-15T09:04:18;95743.96;;;14.66;35.47
47082;BME280;33066;49.296;14.470;2023-04-15T09:06:44;95747.54;;;14.82;35.39
47082;BME280;33066;49.296;14.470;2023-04-15T09:09:09;95752.58;;;14.87;34.81
47082;BME280;33066;49.296;14.470;2023-04-15T09:11:35;95754.10;;;14.63;35.07
47082;BME280;33066;49.296;14.470;2023-04-15T09:14:00;95753.54;;;14.89;35.24
47082;BME280;33066;49.296;14.470;2023-04-15T09:16:25;95752.45;;;14.94;35.14
47082;BME280;33066;49.296;14.470;2023-04-15T09:18:50;95752.60;;;15.02;35.39
47082;BME280;33066;49.296;14.470;2023-04-15T09:21:16;95752.90;;;15.09;34.83
47082;BME280;33066;49.296;14.470;2023-04-15T09:23:53;95755.54;;;15.13;34.58
47082;BME280;33066;49.296;14.470;2023-04-15T09:26:06;95757.88;;;15.19;34.45
47082;BME280;33066;49.296;14.470;2023-04-15T09:28:32;95761.02;;;14.85;33.78
47082;BME280;33066;49.296;14.470;2023-04-15T09:30:57;95761.13;;;14.82;33.64
47082;BME280;33066;49.296;14.470;2023-04-15T09:33:23;95763.70;;;13.70;34.02
47082;BME280;33066;49.296;14.470;2023-04-15T09:35:56;95762.71;;;15.21;33.20
47082;BME280;33066;49.296;14.470;2023-04-15T09:38:13;95763.47;;;15.59;33.45
47082;BME280;33066;49.296;14.470;2023-04-15T09:40:39;95766.57;;;15.37;33.53
47082;BME280;33066;49.296;14.470;2023-04-15T09:43:04;95765.68;;;15.35;33.13
47082;BME280;33066;49.296;14.470;2023-04-15T09:45:29;95764.78;;;15.76;32.69
47082;BME280;33066;49.296;14.470;2023-04-15T09:47:56;95761.39;;;16.27;32.40
47082;BME280;33066;49.296;14.470;2023-04-15T09:50:20;95761.28;;;16.67;31.96
47082;BME280;33066;49.296;14.470;2023-04-15T09:52:46;95759.08;;;16.80;31.36
47082;BME280;33066;49.296;14.470;2023-04-15T09:55:12;95763.40;;;16.47;31.74
47082;BME280;33066;49.296;14.470;2023-04-15T09:57:37;95767.74;;;16.37;31.67
47082;BME280;33066;49.296;14.470;2023-04-15T10:00:03;95767.07;;;16.45;31.41
47082;BME280;33066;49.296;14.470;2023-04-15T10:02:28;95774.18;;;16.09;31.79
47082;BME280;33066;49.296;14.470;2023-04-15T10:04:53;95776.36;;;16.05;32.42
47082;BME280;33066;49.296;14.470;2023-04-15T10:07:19;95776.17;;;15.77;32.38
47082;BME280;33066;49.296;14.470;2023-04-15T10:09:44;95776.97;;;15.51;32.98
47082;BME280;33066;49.296;14.470;2023-04-15T10:12:09;95780.58;;;15.39;33.17
47082;BME280;33066;49.296;14.470;2023-04-15T10:14:35;95779.66;;;15.45;33.21
47082;BME280;33066;49.296;14.470;2023-04-15T10:17:00;95775.58;;;15.90;32.97
47082;BME280;33066;49.296;14.470;2023-04-15T10:19:26;95778.14;;;15.99;32.76
47082;BME280;33066;49.296;14.470;2023-04-15T10:21:50;95780.37;;;16.13;32.30
47082;BME280;33066;49.296;14.470;2023-04-15T10:24:15;95785.61;;;16.37;32.48
47082;BME280;33066;49.296;14.470;2023-04-15T10:26:41;95788.83;;;16.22;32.73
47082;BME280;33066;49.296;14.470;2023-04-15T10:29:07;95794.59;;;16.13;32.11
47082;BME280;33066;49.296;14.470;2023-04-15T10:31:30;95797.99;;;16.12;31.77
47082;BME280;33066;49.296;14.470;2023-04-15T10:33:56;95797.91;;;16.32;31.69
47082;BME280;33066;49.296;14.470;2023-04-15T10:36:21;95803.71;;;16.12;31.43
47082;BME280;33066;49.296;14.470;2023-04-15T10:38:48;95803.58;;;16.27;31.65
47082;BME280;33066;49.296;14.470;2023-04-15T10:41:13;95803.43;;;16.33;32.38
47082;BME280;33066;49.296;14.470;2023-04-15T10:43:37;95803.13;;;16.54;32.10
47082;BME280;33066;49.296;14.470;2023-04-15T10:46:04;95806.10;;;16.20;31.88
47082;BME280;33066;49.296;14.470;2023-04-15T10:48:31;95803.88;;;16.32;31.50
47082;BME280;33066;49.296;14.470;2023-04-15T10:50:56;95807.77;;;16.68;30.95
47082;BME280;33066;49.296;14.470;2023-04-15T10:53:26;95806.16;;;16.56;30.81
47082;BME280;33066;49.296;14.470;2023-04-15T10:55:44;95806.37;;;16.60;31.25
47082;BME280;33066;49.296;14.470;2023-04-15T10:58:09;95808.58;;;16.78;31.13
47082;BME280;33066;49.296;14.470;2023-04-15T11:00:37;95809.10;;;16.72;30.90
47082;BME280;33066;49.296;14.470;2023-04-15T11:03:05;95812.15;;;17.07;30.91
47082;BME280;33066;49.296;14.470;2023-04-15T11:07:53;95814.34;;;16.85;30.26
47082;BME280;33066;49.296;14.470;2023-04-15T11:12:40;95814.80;;;17.32;30.70
47082;BME280;33066;49.296;14.470;2023-04-15T11:15:26;95819.59;;;17.34;30.48
47082;BME280;33066;49.296;14.470;2023-04-15T11:17:31;95819.32;;;16.88;30.64
47082;BME280;33066;49.296;14.470;2023-04-15T11:19:57;95831.76;;;16.63;30.84
47082;BME280;33066;49.296;14.470;2023-04-15T11:22:22;95829.21;;;16.35;31.47
47082;BME280;33066;49.296;14.470;2023-04-15T11:24:47;95836.38;;;16.26;31.63
47082;BME280;33066;49.296;14.470;2023-04-15T11:27:19;95840.02;;;16.09;31.72
47082;BME280;33066;49.296;14.470;2023-04-15T11:29:37;95844.31;;;16.10;31.49
47082;BME280;33066;49.296;14.470;2023-04-15T11:32:04;95847.43;;;15.97;31.15
47082;BME280;33066;49.296;14.470;2023-04-15T11:34:31;95849.61;;;15.83;31.44
47082;BME280;33066;49.296;14.470;2023-04-15T11:36:56;95852.73;;;15.82;31.76
47082;BME280;33066;49.296;14.470;2023-04-15T11:39:22;95852.65;;;15.88;31.77
47082;BME280;33066;49.296;14.470;2023-04-15T11:41:45;95852.60;;;15.92;31.48
47082;BME280;33066;49.296;14.470;2023-04-15T11:44:15;95856.01;;;16.03;31.42
47082;BME280;33066;49.296;14.470;2023-04-15T11:46:35;95858.96;;;16.16;31.69
47082;BME280;33066;49.296;14.470;2023-04-15T11:49:00;95863.25;;;16.23;31.33
47082;BME280;33066;49.296;14.470;2023-04-15T11:51:31;95866.03;;;15.97;31.36
47082;BME280;33066;49.296;14.470;2023-04-15T11:53:52;95867.04;;;16.00;31.51
47082;BME280;33066;49.296;14.470;2023-04-15T11:56:19;95870.87;;;15.89;31.33
47082;BME280;33066;49.296;14.470;2023-04-15T11:58:43;95869.86;;;16.10;31.15
47082;BME280;33066;49.296;14.470;2023-04-15T12:01:08;95874.45;;;16.06;30.91
47082;BME280;33066;49.296;14.470;2023-04-15T12:03:37;95877.71;;;15.84;30.93
47082;BME280;33066;49.296;14.470;2023-04-15T12:06:05;95885.43;;;15.84;31.44
47082;BME280;33066;49.296;14.470;2023-04-15T12:08:23;95885.95;;;15.83;31.15
47082;BME280;33066;49.296;14.470;2023-04-15T12:10:49;95887.02;;;15.85;30.87
47082;BME280;33066;49.296;14.470;2023-04-15T12:13:14;95887.99;;;15.87;30.18
47082;BME280;33066;49.296;14.470;2023-04-15T12:15:40;95890.37;;;15.86;30.12
47082;BME280;33066;49.296;14.470;2023-04-15T12:18:04;95892.23;;;15.90;30.86
47082;BME280;33066;49.296;14.470;2023-04-15T12:20:30;95895.88;;;16.02;30.41
47082;BME280;33066;49.296;14.470;2023-04-15T12:23:04;95894.64;;;16.16;30.62
47082;BME280;33066;49.296;14.470;2023-04-15T12:27:50;95901.40;;;16.25;30.26
47082;BME280;33066;49.296;14.470;2023-04-15T12:30:12;95901.82;;;16.25;30.28
47082;BME280;33066;49.296;14.470;2023-04-15T12:32:36;95906.63;;;15.98;30.08
47082;BME280;33066;49.296;14.470;2023-04-15T12:35:01;95906.38;;;16.00;30.40
47082;BME280;33066;49.296;14.470;2023-04-15T12:37:27;95906.95;;;16.30;30.23
47082;BME280;33066;49.296;14.470;2023-04-15T12:39:52;95906.34;;;16.30;29.96
47082;BME280;33066;49.296;14.470;2023-04-15T12:42:18;95906.89;;;15.97;30.18
47082;BME280;33066;49.296;14.470;2023-04-15T12:44:43;95909.98;;;15.99;30.17
47082;BME280;33066;49.296;14.470;2023-04-15T12:47:09;95913.05;;;15.73;30.33